Flight Track Log - Related Links

Times and Time Zones

All times are in EDT time to prevent confusion due to time zone crossing. See the N36QM flight status page for this flight to view local times or setup timezone preferences in your user account.

Time Position Orientation Groundspeed Altitude Reporting Facility
EDT Latitude Longitude Course Direction KTS MPH feet Rate Location/Type
Sun 07:26:19 PM 40.6939 -77.7703 303° West 161 185 3,800  Level New York Center
Sun 07:27:19 PM 40.7083 -77.8100 296° West 136 157 4,500 694 Climbing New York Center
Sun 07:28:20 PM 40.7119 -77.8542 276° West 131 151 5,200 765 Climbing New York Center
Sun 07:29:01 PM 40.7172 -77.8900 281° West 123 142 5,800 706 Climbing Cleveland Center
Sun 07:30:02 PM 40.7203 -77.9367 275° West 121 139 6,400 595 Climbing Cleveland Center
Sun 07:31:00 PM 40.7044 -77.9587 303° West  Level FlightAware Approximate
Sun 07:31:02 PM 40.7214 -77.9803 272° West 124 143 7,000  Level Cleveland Center
Sun 07:32:03 PM 40.7264 -78.0267 278° West 124 143 7,500 492 Climbing Cleveland Center
Sun 07:33:04 PM 40.7297 -78.0733 275° West 126 145 8,000 261 Climbing Cleveland Center
Sun 07:33:58 PM 40.7347 -78.1222 278° West 143 165 8,000  Level Cleveland Center
Sun 07:34:53 PM 40.7381 -78.1717 275° West 160 184 8,000  Level Cleveland Center
Sun 07:35:53 PM 40.7478 -78.2369 281° West 164 189 8,000  Level Cleveland Center
Sun 07:37:00 PM 40.7511 -78.2972 274° West 163 188 8,000  Level Cleveland Center
Sun 07:38:01 PM 40.7606 -78.3572 282° West 162 186 8,000  Level Cleveland Center
Sun 07:39:01 PM 40.7681 -78.4172 279° West 161 185 8,000  Level Cleveland Center
Sun 07:40:02 PM 40.7711 -78.4775 274° West 163 188 8,000  Level Cleveland Center
Sun 07:41:03 PM 40.7783 -78.5347 279° West 161 185 8,000  Level Cleveland Center
Sun 07:42:03 PM 40.7836 -78.5894 277° West 161 185 8,000  Level Cleveland Center
Sun 07:42:58 PM 40.7908 -78.6442 280° West 162 186 8,000 -52 Level Cleveland Center
Sun 07:43:58 PM 40.7961 -78.7069 276° West 164 189 7,900  Descending Cleveland Center
Sun 07:44:59 PM 40.8011 -78.7672 276° West 162 186 8,000 49 Climbing Cleveland Center
Sun 07:46:00 PM 40.8103 -78.8219 282° West 162 186 8,000  Level Cleveland Center
Sun 07:47:00 PM 40.8156 -78.8875 276° West 164 189 8,000  Level Cleveland Center
Sun 07:48:01 PM 40.8225 -78.9450 279° West 163 188 8,000  Level Cleveland Center
Sun 07:49:02 PM 40.8275 -78.9997 277° West 160 184 8,000  Level Cleveland Center
Sun 07:50:02 PM 40.8325 -79.0600 276° West 162 186 8,000  Level Cleveland Center
Sun 07:51:36 PM 40.8419 -79.1531 278° West 169 194 8,000 39 Level Cleveland Center
Sun 07:52:36 PM 40.8489 -79.2106 279° West 169 194 8,100 50 Climbing Cleveland Center
Sun 07:53:36 PM 40.8539 -79.2683 277° West 164 189 8,100 -50 Level Cleveland Center
Sun 07:54:36 PM 40.8586 -79.3258 276° West 159 183 8,000 -50 Descending Cleveland Center
Sun 07:55:36 PM 40.8656 -79.3833 279° West 159 183 8,000  Level Cleveland Center
Sun 07:56:36 PM 40.8703 -79.4436 276° West 159 183 8,000  Level Cleveland Center
Sun 07:57:36 PM 40.8750 -79.5011 276° West 159 183 8,000  Level Cleveland Center
Sun 07:58:36 PM 40.8819 -79.5589 279° West 159 183 8,000  Level Cleveland Center
Sun 07:59:36 PM 40.8886 -79.6164 279° West 159 183 8,000  Level Cleveland Center
Sun 08:00:36 PM 40.8933 -79.6767 276° West 159 183 8,000  Level Cleveland Center
Sun 08:01:36 PM 40.9000 -79.7342 279° West 159 183 8,000  Level Cleveland Center
Sun 08:02:36 PM 40.9067 -79.7919 279° West 159 183 8,000  Level Cleveland Center
Sun 08:03:36 PM 40.9111 -79.8522 276° West 159 183 8,000  Level Cleveland Center
Sun 08:04:36 PM 40.9158 -79.9128 276° West 159 183 8,000  Level Cleveland Center
Sun 08:05:36 PM 40.9222 -79.9703 278° West 159 183 8,000  Level Cleveland Center
Sun 08:07:00 PM 40.9271 -80.0519 275° West  Level FlightAware Approximate
Sun 08:14:00 PM 40.9508 -80.4608 275° West  Level FlightAware Approximate
Sun 08:15:00 PM 40.9550 -80.5191 275° West  Level FlightAware Approximate
Sun 08:16:00 PM 40.9591 -80.5774 275° West  Level FlightAware Approximate
Sun 08:17:00 PM 40.9633 -80.6357 275° West  Level FlightAware Approximate
Sun 08:18:00 PM 40.9676 -80.6939 277° West  Level FlightAware Approximate
Sun 08:19:00 PM 40.9730 -80.7521 277° West  Level FlightAware Approximate
Sun 08:20:00 PM 40.9782 -80.8102 277° West  Level FlightAware Approximate
Sun 08:21:00 PM 40.9835 -80.8683 277° West  Level FlightAware Approximate
Sun 08:22:00 PM 40.9888 -80.9265 277° West  Level FlightAware Approximate
Sun 08:23:00 PM 40.9940 -80.9847 277° West  Level FlightAware Approximate
Sun 08:23:12 PM 41.0067 -80.9819 277° West 153 176 8,000  Level Cleveland Center
Sun 08:23:42 PM 41.0064 -81.0097 269° West 154 177 8,000  Level Cleveland Center
Sun 08:24:00 PM 40.9991 -81.0428 277° West  Level FlightAware Approximate
Sun 08:24:43 PM 41.0106 -81.0703 275° West 155 178 8,000  Level Cleveland Center
Sun 08:25:00 PM 41.0043 -81.1010 277° West  Level FlightAware Approximate
Sun 08:25:43 PM 41.0164 -81.1253 278° West 158 182 8,000  Level Cleveland Center
Sun 08:26:00 PM 41.0094 -81.1592 277° West  Level FlightAware Approximate
Sun 08:26:44 PM 41.0225 -81.1858 278° West 156 180 8,000  Level Cleveland Center
Sun 08:27:00 PM 41.0145 -81.2174 277° West  Level FlightAware Approximate
Sun 08:27:38 PM 41.0242 -81.2353 273° West 157 181 8,000  Level Cleveland Center
Sun 08:28:00 PM 41.0196 -81.2756 277° West  Level FlightAware Approximate
Sun 08:28:33 PM 41.0281 -81.2878 276° West 158 182 8,000  Level Cleveland Center
Sun 08:29:40 PM 41.0339 -81.3539 277° West 157 181 8,000  Level Cleveland Center
Sun 08:30:40 PM 41.0397 -81.4117 278° West 157 181 8,000  Level Cleveland Center
Sun 08:31:35 PM 41.0414 -81.4642 272° West 158 182 8,000  Level Cleveland Center
Sun 08:32:41 PM 41.0492 -81.5247 280° West 155 178 8,000  Level Cleveland Center
Sun 08:33:36 PM 41.0508 -81.5769 272° West 156 180 8,000  Level Cleveland Center
Sun 08:34:37 PM 41.0544 -81.6350 275° West 156 180 8,000  Level Cleveland Center
Sun 08:35:37 PM 41.0603 -81.6928 278° West 156 180 8,000  Level Cleveland Center
Sun 08:36:38 PM 41.0658 -81.7508 277° West 158 182 8,000  Level Cleveland Center
Sun 08:37:38 PM 41.0675 -81.8058 272° West 155 178 8,000  Level Cleveland Center
Sun 08:38:39 PM 41.0753 -81.8639 280° West 159 183 8,000  Level Cleveland Center
Sun 08:39:58 PM 41.0806 -81.9383 275° West 156 180 8,000  Level Cleveland Center
Sun 08:40:59 PM 41.0839 -81.9992 274° West 157 181 8,000  Level Cleveland Center
Sun 08:42:00 PM 41.0861 -82.0587 273° West  Level FlightAware Approximate
Sun 08:49:00 PM 41.1018 -82.4691 277° West  Level FlightAware Approximate
Sun 08:50:00 PM 41.1072 -82.5273 277° West  Level FlightAware Approximate
Sun 08:51:00 PM 41.1126 -82.5855 277° West  Level FlightAware Approximate
Sun 08:52:00 PM 41.1179 -82.6438 277° West  Level FlightAware Approximate
Sun 08:53:00 PM 41.1232 -82.7021 277° West  Level FlightAware Approximate
Sun 08:54:00 PM 41.1285 -82.7603 277° West  Level FlightAware Approximate
Sun 08:55:00 PM 41.1338 -82.8186 277° West  Level FlightAware Approximate
Sun 08:56:00 PM 41.1390 -82.8769 277° West  Level FlightAware Approximate
Sun 08:57:00 PM 41.1442 -82.9352 277° West  Level FlightAware Approximate
Sun 08:58:00 PM 41.1494 -82.9935 277° West  Level FlightAware Approximate
Sun 08:59:00 PM 41.1531 -83.0520 275° West  Level FlightAware Approximate
Sun 08:59:24 PM 41.1611 -83.0719 274° West 159 183 8,000  Level Chicago Center
Sun 09:00:00 PM 41.1565 -83.1106 274° West  Level FlightAware Approximate
Sun 09:00:27 PM 41.1650 -83.1311 275° West 161 185 8,000  Level Chicago Center
Sun 09:01:00 PM 41.1600 -83.1691 274° West  Level FlightAware Approximate
Sun 09:01:29 PM 41.1706 -83.1894 277° West 161 185 8,000  Level Chicago Center
Sun 09:02:00 PM 41.1633 -83.2277 274° West  Level FlightAware Approximate
Sun 09:02:31 PM 41.1747 -83.2481 275° West 160 184 8,000  Level Chicago Center
Sun 09:03:00 PM 41.1667 -83.2862 274° West  Level FlightAware Approximate
Sun 09:03:33 PM 41.1772 -83.3089 273° West 162 186 8,000  Level Chicago Center
Sun 09:04:00 PM 41.1700 -83.3448 274° West  Level FlightAware Approximate
Sun 09:04:35 PM 41.1811 -83.3689 275° West 163 188 8,000  Level Chicago Center
Sun 09:05:37 PM 41.1850 -83.4400 274° West 163 188 8,000  Level Chicago Center
Sun 09:06:39 PM 41.1886 -83.5008 275° West 163 188 8,000  Level Chicago Center
Sun 09:07:41 PM 41.1914 -83.5614 274° West 164 189 8,000  Level Chicago Center
Sun 09:08:43 PM 41.1953 -83.6214 275° West 165 190 8,000  Level Chicago Center
Sun 09:09:45 PM 41.1978 -83.6808 273° West 163 188 8,000  Level Chicago Center
Sun 09:10:47 PM 41.2033 -83.7519 276° West 163 188 8,000  Level Chicago Center
Sun 09:11:49 PM 41.2072 -83.8128 275° West 163 188 8,000  Level Chicago Center
Sun 09:12:52 PM 41.2086 -83.8739 272° West 164 189 8,000  Level Chicago Center
Sun 09:13:54 PM 41.2122 -83.9328 275° West 163 188 8,000  Level Chicago Center
Sun 09:14:56 PM 41.2156 -83.9933 274° West 163 188 8,000  Level Chicago Center
Sun 09:15:58 PM 41.2186 -84.0539 274° West 164 189 8,000  Level Chicago Center
Sun 09:17:00 PM 41.2225 -84.1264 274° West 164 189 8,000  Level Chicago Center
Sun 09:18:02 PM 41.2253 -84.1867 274° West 164 189 8,000  Level Chicago Center
Sun 09:19:04 PM 41.2297 -84.2486 275° West 166 191 8,000  Level Chicago Center
Sun 09:20:06 PM 41.2317 -84.3097 272° West 166 191 8,000  Level Chicago Center
Sun 09:21:08 PM 41.2339 -84.3694 273° West 165 190 8,000  Level Chicago Center
Sun 09:22:10 PM 41.2375 -84.4292 275° West 164 189 8,000  Level Chicago Center
Sun 09:23:12 PM 41.2425 -84.5050 275° West 168 193 8,000  Level Chicago Center
Sun 09:24:14 PM 41.2458 -84.5650 274° West 167 192 8,000  Level Chicago Center
Sun 09:25:16 PM 41.2481 -84.6256 273° West 164 189 8,000  Level Chicago Center
Sun 09:26:18 PM 41.2500 -84.6856 272° West 164 189 8,000  Level Chicago Center
Sun 09:27:20 PM 41.2528 -84.7467 273° West 165 190 8,000  Level Chicago Center
Sun 09:28:23 PM 41.2567 -84.8089 275° West 166 191 8,000  Level Chicago Center
Sun 09:29:25 PM 41.2589 -84.8811 272° West 166 191 8,000  Level Chicago Center
Sun 09:30:27 PM 41.2617 -84.9428 273° West 166 191 8,000  Level Chicago Center
Sun 09:31:29 PM 41.2647 -85.0053 274° West 168 193 8,000  Level Chicago Center
Sun 09:32:31 PM 41.2675 -85.0669 273° West 168 193 8,000  Level Chicago Center
Sun 09:33:33 PM 41.2703 -85.1294 273° West 169 194 8,000 48 Level Chicago Center
Sun 09:34:35 PM 41.2736 -85.1911 274° West 168 193 8,100  Climbing Chicago Center
Sun 09:35:37 PM 41.2767 -85.2531 274° West 167 192 8,000  Descending Chicago Center
Sun 09:36:39 PM 41.2792 -85.3283 273° West 169 194 8,100 48 Climbing Chicago Center
Sun 09:37:41 PM 41.2819 -85.3911 273° West 169 194 8,100  Level Chicago Center
Sun 09:38:42 PM 41.2850 -85.4531 274° West 169 194 8,100  Level Chicago Center
Sun 09:39:44 PM 41.2869 -85.5147 272° West 167 192 8,100  Level Chicago Center
Sun 09:40:46 PM 41.2897 -85.5761 273° West 166 191 8,100  Level Chicago Center
Sun 09:41:48 PM 41.2919 -85.6383 273° West 167 192 8,100  Level Chicago Center
Sun 09:42:50 PM 41.2942 -85.7006 273° West 169 194 8,100  Level Chicago Center
Sun 09:43:52 PM 41.2978 -85.7744 274° West 167 192 8,100 -97 Level Chicago Center
Sun 09:44:54 PM 41.2986 -85.8372 271° West 169 194 7,900 -48 Descending Chicago Center
Sun 09:45:56 PM 41.3017 -85.8992 274° West 168 193 8,000 48 Climbing Chicago Center
Sun 09:46:58 PM 41.3042 -85.9608 273° West 168 193 8,000  Level Chicago Center
Sun 09:48:00 PM 41.3078 -86.0233 274° West 170 196 8,000  Level Chicago Center
Sun 09:49:01 PM 41.3092 -86.0842 272° West 165 190 8,000 -146 Level Chicago Center
Sun 09:50:03 PM 41.3114 -86.1475 273° West 170 196 7,700 -629 Descending Chicago Center
Sun 09:51:05 PM 41.3147 -86.2308 273° West 188 216 6,700 -871 Descending Chicago Center
Sun 09:52:07 PM 41.3181 -86.2972 274° West 181 208 5,900 -878 Descending Chicago Center
Sun 09:53:08 PM 41.3186 -86.3628 271° West 177 204 4,900 -732 Descending Chicago Center
Sun 09:54:10 PM 41.3222 -86.4253 274° West 179 206 4,400 -484 Descending Chicago Center

Login

Don't have an account? Register now (free) for customized features, flight alerts, and more!